Time;durP1;ratioP1;P1;durP2;ratioP2;P2;SDS_P1;SDS_P2;PMS_P1;PMS_P2;Temp;Humidity;BMP_temperature;BMP_pressure;BME280_temperature;BME280_humidity;BME280_pressure;Samples;Min_cycle;Max_cycle;Signal;HPM_P1;HPM_P2
2022/03/12 00:00:50;;;;;;;14.07;5.03;;;;;;;-0.65;100.00;99993.78;5130604;27;20521;-61
2022/03/12 00:03:18;;;;;;;9.18;4.32;;;;;;;-0.68;100.00;99992.41;5130322;28;20054;-61
2022/03/12 00:05:48;;;;;;;11.18;4.00;;;;;;;-0.75;100.00;99997.28;5130293;28;20054;-61
2022/03/12 00:08:15;;;;;;;7.55;4.28;;;;;;;-0.69;100.00;99990.00;5130252;28;20056;-61
2022/03/12 00:10:43;;;;;;;13.88;4.63;;;;;;;-0.72;100.00;99985.97;5130063;27;20192;-61
2022/03/12 00:13:09;;;;;;;9.63;4.82;;;;;;;-0.71;100.00;99998.34;5130241;27;20043;-61
2022/03/12 00:15:37;;;;;;;10.80;4.65;;;;;;;-0.66;100.00;99982.19;5130305;28;20047;-61
2022/03/12 00:18:06;;;;;;;8.55;4.65;;;;;;;-0.67;100.00;99977.06;5129903;27;20196;-62
2022/03/12 00:20:34;;;;;;;8.95;4.85;;;;;;;-0.67;100.00;99980.56;5129966;28;20051;-61
2022/03/12 00:23:01;;;;;;;14.98;4.70;;;;;;;-0.63;100.00;99981.66;5130463;27;20057;-61
2022/03/12 00:25:27;;;;;;;12.57;4.60;;;;;;;-0.67;100.00;99977.06;5130035;28;20138;-61
2022/03/12 00:27:54;;;;;;;8.48;3.85;;;;;;;-0.66;100.00;99984.09;5129730;28;20089;-61
2022/03/12 00:30:24;;;;;;;9.30;4.70;;;;;;;-0.63;100.00;99980.81;5130046;28;20097;-61
2022/03/12 00:32:53;;;;;;;10.32;4.60;;;;;;;-0.62;100.00;99969.00;5130252;27;20062;-61
2022/03/12 00:35:20;;;;;;;8.15;4.20;;;;;;;-0.68;100.00;99965.50;5130020;27;20107;-62
2022/03/12 00:37:46;;;;;;;7.40;3.90;;;;;;;-0.66;100.00;99971.44;5129715;28;20063;-61
2022/03/12 00:40:14;;;;;;;7.90;3.90;;;;;;;-0.69;100.00;99957.69;5130033;28;20105;-62
2022/03/12 00:42:41;;;;;;;9.90;4.43;;;;;;;-0.69;100.00;99961.19;5129892;28;20150;-61
2022/03/12 00:45:08;;;;;;;10.98;4.40;;;;;;;-0.71;100.00;99950.69;5129864;27;20088;-61
2022/03/12 00:47:34;;;;;;;15.15;4.75;;;;;;;-0.60;100.00;99939.88;5133149;28;20093;-61
2022/03/12 00:50:01;;;;;;;10.55;4.60;;;;;;;-0.55;100.00;99946.09;5133833;27;20452;-61
2022/03/12 00:52:27;;;;;;;9.82;4.88;;;;;;;-0.57;100.00;99942.84;5133260;27;20132;-61
2022/03/12 00:54:53;;;;;;;8.38;4.38;;;;;;;-0.55;100.00;99946.09;5133828;28;20055;-61
2022/03/12 00:57:20;;;;;;;10.93;5.05;;;;;;;-0.48;100.00;99940.41;5133336;27;20054;-61
2022/03/12 00:59:47;;;;;;;7.65;4.20;;;;;;;-0.56;100.00;99931.00;5133139;28;20051;-61
2022/03/12 01:02:15;;;;;;;7.13;4.03;;;;;;;-0.53;100.00;99933.16;5132993;27;20138;-61
2022/03/12 01:04:42;;;;;;;9.02;4.50;;;;;;;-0.58;100.00;99919.69;5133261;27;20581;-61
2022/03/12 01:07:09;;;;;;;10.57;4.15;;;;;;;-0.55;100.00;99910.28;5133493;28;20058;-61
2022/03/12 01:09:36;;;;;;;11.45;4.80;;;;;;;-0.62;100.00;99926.72;5133380;28;20605;-61
2022/03/12 01:12:02;;;;;;;13.88;5.43;;;;;;;-0.71;100.00;99904.91;5133277;27;20455;-62
2022/03/12 01:14:29;;;;;;;11.40;4.60;;;;;;;-0.68;100.00;99908.94;5133080;28;20043;-61
2022/03/12 01:16:57;;;;;;;8.65;4.63;;;;;;;-0.67;100.00;99905.16;5133263;28;20082;-61
2022/03/12 01:19:23;;;;;;;11.38;4.95;;;;;;;-0.67;100.00;99901.66;5132902;27;20047;-61
2022/03/12 01:21:50;;;;;;;13.48;4.95;;;;;;;-0.66;100.00;99897.91;5133312;27;20053;-61
2022/03/12 01:24:17;;;;;;;10.45;4.80;;;;;;;-0.61;100.00;99901.38;5132875;27;20187;-61
2022/03/12 01:26:43;;;;;;;9.18;4.70;;;;;;;-0.60;100.00;99899.50;5132310;28;20047;-61
2022/03/12 01:29:09;;;;;;;9.10;4.78;;;;;;;-0.60;100.00;99886.88;5132676;28;20490;-61
2022/03/12 01:31:36;;;;;;;20.10;4.95;;;;;;;-0.58;100.00;99876.59;5132703;28;20104;-61
2022/03/12 01:34:03;;;;;;;10.05;4.82;;;;;;;-0.61;100.00;99877.16;5132445;27;20047;-61
2022/03/12 01:36:29;;;;;;;10.68;4.95;;;;;;;-0.64;100.00;99863.41;5132435;28;20051;-61
2022/03/12 01:38:57;;;;;;;13.65;4.53;;;;;;;-0.65;100.00;99868.00;5132516;28;20055;-62
2022/03/12 01:41:26;;;;;;;9.27;4.18;;;;;;;-0.67;100.00;99854.00;5132272;28;20051;-61
2022/03/12 01:43:54;;;;;;;9.40;4.80;;;;;;;-0.65;100.00;99854.53;5132319;27;20486;-61
2022/03/12 01:46:29;;;;;;;8.30;4.75;;;;;;;-0.59;100.00;99850.75;5132478;27;20047;-62
2022/03/12 01:49:15;;;;;;;9.20;4.28;;;;;;;-0.61;100.00;99850.22;5132605;27;20091;-61
2022/03/12 01:51:44;;;;;;;8.85;4.20;;;;;;;-0.63;100.00;99848.88;5132272;27;20094;-62
2022/03/12 01:54:11;;;;;;;8.35;4.32;;;;;;;-0.59;100.00;99849.97;5132516;27;20130;-62
2022/03/12 01:56:39;;;;;;;8.57;4.65;;;;;;;-0.63;100.00;99843.47;5131881;27;20058;-61
2022/03/12 01:59:06;;;;;;;9.75;4.20;;;;;;;-0.61;100.00;99833.25;5131128;27;20138;-61
2022/03/12 02:01:33;;;;;;;8.02;4.47;;;;;;;-0.58;100.00;99836.22;5132145;27;20043;-61
2022/03/12 02:04:00;;;;;;;12.85;4.78;;;;;;;-0.57;100.00;99845.88;5131937;28;20043;-61
2022/03/12 02:06:27;;;;;;;10.45;4.32;;;;;;;-0.54;100.00;99845.34;5132323;28;20067;-61
2022/03/12 02:08:58;;;;;;;9.63;4.63;;;;;;;-0.58;100.00;99846.97;5131882;27;20083;-61
2022/03/12 02:11:27;;;;;;;10.95;5.07;;;;;;;-0.60;100.00;99842.94;5131823;27;20047;-61
2022/03/12 02:14:00;;;;;;;10.82;4.55;;;;;;;-0.55;100.00;99834.84;5131667;28;20072;-62
2022/03/12 02:16:27;;;;;;;11.38;4.82;;;;;;;-0.57;100.00;99834.31;5132269;28;20062;-61
2022/03/12 02:18:53;;;;;;;10.55;4.78;;;;;;;-0.57;100.00;99824.34;5132007;28;20087;-61
2022/03/12 02:21:34;;;;;;;7.53;4.53;;;;;;;-0.52;100.00;99828.94;5131976;28;20116;-61
2022/03/12 02:24:03;;;;;;;9.65;4.38;;;;;;;-0.60;100.00;99827.63;5131818;27;20100;-61
2022/03/12 02:26:29;;;;;;;10.73;4.63;;;;;;;-0.54;100.00;99810.31;5131593;28;20053;-61
2022/03/12 02:28:57;;;;;;;11.32;5.22;;;;;;;-0.56;100.00;99809.81;5131640;27;20055;-62
2022/03/12 02:31:26;;;;;;;7.45;4.28;;;;;;;-0.57;100.00;99810.88;5131439;28;20100;-61
2022/03/12 02:33:53;;;;;;;10.88;4.55;;;;;;;-0.63;100.00;99822.78;5131738;27;20051;-62
2022/03/12 02:36:27;;;;;;;10.73;4.13;;;;;;;-0.63;100.00;99819.25;5131508;28;20141;-61
2022/03/12 02:38:54;;;;;;;;;;;;;;;-0.59;100.00;99814.94;5131709;27;20043;-61
2022/03/12 02:41:23;;;;;;;13.32;4.97;;;;;;;-0.63;100.00;99809.31;5131727;28;19984;-61
2022/03/12 02:43:49;;;;;;;9.13;4.63;;;;;;;-0.54;100.00;99809.53;5131566;27;20499;-62
2022/03/12 02:46:17;;;;;;;10.30;4.68;;;;;;;-0.55;100.00;99810.63;5131488;27;20133;-61
2022/03/12 02:48:51;;;;;;;11.60;4.43;;;;;;;-0.52;100.00;99808.19;5131272;28;20055;-62
2022/03/12 02:51:20;;;;;;;12.30;4.70;;;;;;;-0.48;100.00;99801.16;5131680;27;20103;-62
2022/03/12 02:53:46;;;;;;;19.73;7.50;;;;;;;-0.51;100.00;99790.94;5131247;28;20047;-61
2022/03/12 02:56:12;;;;;;;9.55;4.20;;;;;;;-0.50;100.00;99792.56;5131348;28;20111;-61
2022/03/12 02:58:39;;;;;;;9.57;4.20;;;;;;;-0.49;100.00;99806.81;5130993;27;20150;-62
2022/03/12 03:01:05;;;;;;;11.57;4.35;;;;;;;-0.45;100.00;99797.09;5131583;28;20552;-61
2022/03/12 03:03:34;;;;;;;8.18;4.72;;;;;;;-0.50;100.00;99800.63;5130996;28;20072;-61
2022/03/12 03:06:00;;;;;;;8.77;4.68;;;;;;;-0.48;100.00;99794.97;5131319;28;20043;-61
2022/03/12 03:08:28;;;;;;;14.27;4.97;;;;;;;-0.43;100.00;99792.25;5130457;27;20051;-61
2022/03/12 03:10:57;;;;;;;6.63;3.65;;;;;;;-0.37;100.00;99793.03;5131128;28;20574;-62
2022/03/12 03:13:37;;;;;;;9.52;4.15;;;;;;;-0.40;100.00;99790.88;5131105;27;20501;-61
2022/03/12 03:16:08;;;;;;;11.85;4.30;;;;;;;-0.40;100.00;99791.72;5130858;27;20072;-61
2022/03/12 03:18:39;;;;;;;10.43;4.60;;;;;;;-0.40;100.00;99793.56;5131102;27;20061;-61
2022/03/12 03:21:08;;;;;;;9.65;4.53;;;;;;;-0.43;100.00;99794.94;5130731;28;20051;-61
2022/03/12 03:23:34;;;;;;;14.35;4.43;;;;;;;-0.40;100.00;99794.41;5130774;27;20395;-61
2022/03/12 03:26:01;;;;;;;9.20;4.50;;;;;;;-0.42;100.00;99793.06;5130885;27;20051;-61
2022/03/12 03:28:27;;;;;;;10.32;4.45;;;;;;;-0.44;100.00;99795.22;5130332;27;20047;-61
2022/03/12 03:30:53;;;;;;;10.48;4.43;;;;;;;-0.39;100.00;99798.69;5130795;27;20054;-61
2022/03/12 03:33:22;;;;;;;9.27;4.30;;;;;;;-0.42;100.00;99806.53;5130690;27;20047;-61
2022/03/12 03:35:48;;;;;;;8.48;3.97;;;;;;;-0.44;100.00;99811.38;5130440;27;20043;-61
2022/03/12 03:38:15;;;;;;;7.85;4.05;;;;;;;-0.41;100.00;99805.44;5130467;28;20399;-61
2022/03/12 03:40:44;;;;;;;14.93;4.32;;;;;;;-0.40;100.00;99815.94;5130915;27;20539;-62
2022/03/12 03:43:13;;;;;;;7.75;4.13;;;;;;;-0.41;100.00;99808.94;5130506;27;20051;-61
2022/03/12 03:45:40;;;;;;;11.20;4.70;;;;;;;-0.39;100.00;99808.69;5130827;27;20449;-61
2022/03/12 03:48:11;;;;;;;6.40;4.15;;;;;;;-0.35;100.00;99810.53;5130614;27;20105;-62
2022/03/12 03:50:38;;;;;;;10.48;4.82;;;;;;;-0.36;100.00;99816.19;5130600;28;20548;-61
2022/03/12 03:53:04;;;;;;;7.75;4.18;;;;;;;-0.39;100.00;99822.16;5130499;27;20057;-61
2022/03/12 03:55:32;;;;;;;10.68;4.47;;;;;;;-0.38;100.00;99826.44;5130532;27;20051;-61
2022/03/12 03:57:59;;;;;;;8.68;4.63;;;;;;;-0.32;100.00;99830.72;5130528;28;20062;-61
2022/03/12 04:00:25;;;;;;;9.75;4.40;;;;;;;-0.26;100.00;99822.34;5130245;27;20047;-61
2022/03/12 04:03:02;;;;;;;11.90;4.60;;;;;;;-0.32;100.00;99836.13;5130411;27;20055;-61
2022/03/12 04:05:28;;;;;;;14.45;4.60;;;;;;;-0.37;100.00;99850.41;5130395;28;20051;-61
2022/03/12 04:07:55;;;;;;;8.18;4.50;;;;;;;-0.43;100.00;99858.78;5130567;28;20051;-61
2022/03/12 04:10:22;;;;;;;10.00;4.07;;;;;;;-0.40;100.00;99863.63;5130133;27;20051;-61
2022/03/12 04:12:48;;;;;;;10.23;4.57;;;;;;;-0.41;100.00;99851.22;5130448;27;20051;-61
2022/03/12 04:15:15;;;;;;;10.05;4.35;;;;;;;-0.41;100.00;99860.13;5129938;27;20104;-61
2022/03/12 04:17:42;;;;;;;11.30;4.47;;;;;;;-0.38;100.00;99854.19;5129900;27;20399;-61
2022/03/12 04:20:10;;;;;;;12.52;4.72;;;;;;;-0.33;100.00;99869.53;5130150;27;20054;-61
2022/03/12 04:22:38;;;;;;;12.05;5.20;;;;;;;-0.40;100.00;99869.00;5133326;27;20058;-61
2022/03/12 04:25:10;;;;;;;12.85;4.57;;;;;;;-0.37;100.00;99880.03;5133875;27;20043;-61
2022/03/12 04:27:38;;;;;;;10.38;4.93;;;;;;;-0.31;100.00;99880.84;5133087;28;20087;-61
2022/03/12 04:30:06;;;;;;;12.05;4.55;;;;;;;-0.29;100.00;99884.06;5133421;27;20043;-61
2022/03/12 04:32:32;;;;;;;11.88;4.15;;;;;;;-0.28;100.00;99885.66;5133525;28;20103;-60
2022/03/12 04:34:59;;;;;;;9.25;4.35;;;;;;;-0.30;100.00;99883.25;5133384;27;20050;-61
2022/03/12 04:37:25;;;;;;;8.65;4.55;;;;;;;-0.33;100.00;99885.69;5133107;27;20051;-61
2022/03/12 04:39:51;;;;;;;11.13;4.57;;;;;;;-0.32;100.00;99881.91;5133639;27;20051;-61
2022/03/12 04:42:19;;;;;;;10.77;4.03;;;;;;;-0.37;98.04;99887.31;5133176;27;20058;-61
2022/03/12 04:44:45;;;;;;;8.43;4.30;;;;;;;-0.35;98.94;99883.28;5133244;27;20059;-61
2022/03/12 04:47:11;;;;;;;14.52;3.70;;;;;;;-0.27;97.11;99885.41;5133202;27;20055;-61
2022/03/12 04:49:37;;;;;;;8.45;4.60;;;;;;;-0.26;96.60;99883.53;5133098;27;20082;-61
2022/03/12 04:52:06;;;;;;;9.20;4.43;;;;;;;-0.24;95.07;99879.44;5133210;28;20520;-61
2022/03/12 04:54:33;;;;;;;10.88;4.57;;;;;;;-0.25;95.08;99894.00;5133007;28;20093;-61
2022/03/12 04:57:00;;;;;;;8.77;4.10;;;;;;;-0.23;94.87;99880.28;5132857;28;20090;-62
2022/03/12 04:59:27;;;;;;;8.05;3.80;;;;;;;-0.18;97.34;99861.38;5132825;28;20422;-59
2022/03/12 05:01:53;;;;;;;9.35;4.30;;;;;;;-0.10;97.07;99868.91;5133012;27;20482;-59
2022/03/12 05:04:20;;;;;;;8.02;3.70;;;;;;;-0.08;96.12;99863.22;5132830;28;20047;-59
2022/03/12 05:06:46;;;;;;;7.40;3.65;;;;;;;-0.15;96.97;99866.22;5132976;28;20130;-59
2022/03/12 05:09:12;;;;;;;10.25;4.78;;;;;;;0.18;95.93;99858.50;5132792;27;20555;-60
2022/03/12 05:11:38;;;;;;;8.18;3.65;;;;;;;0.19;95.50;99870.88;5132630;27;20141;-58
2022/03/12 05:14:05;;;;;;;9.70;3.95;;;;;;;0.21;92.71;99874.13;5132334;28;20054;-59
2022/03/12 05:16:35;;;;;;;10.27;4.25;;;;;;;0.31;92.49;99875.97;5136601;27;20051;-60
2022/03/12 05:19:06;;;;;;;10.65;4.13;;;;;;;0.26;92.84;99876.78;5135336;27;20051;-60
2022/03/12 05:21:32;;;;;;;8.93;4.25;;;;;;;0.15;93.00;99867.16;5126493;27;20047;-59
2022/03/12 05:23:59;;;;;;;8.80;4.03;;;;;;;0.23;92.20;99867.38;5122425;28;20055;-59
2022/03/12 05:26:25;;;;;;;8.80;3.53;;;;;;;0.34;93.34;99859.22;5124153;28;20093;-58
2022/03/12 05:28:51;;;;;;;9.07;4.43;;;;;;;0.41;93.52;99860.50;5115589;28;20423;-59
2022/03/12 05:31:17;;;;;;;10.82;4.00;;;;;;;0.42;92.20;99859.41;5116844;28;20557;-59
2022/03/12 05:33:46;;;;;;;10.30;4.50;;;;;;;0.41;91.18;99857.00;5120733;27;20043;-60
2022/03/12 05:36:12;;;;;;;9.40;4.70;;;;;;;0.55;90.75;99862.56;5111842;27;20506;-59
2022/03/12 05:38:39;;;;;;;14.82;4.07;;;;;;;0.63;94.60;99856.56;5123286;27;20138;-58
2022/03/12 05:41:09;;;;;;;6.97;4.18;;;;;;;0.67;92.48;99855.72;5128761;27;20071;-58
2022/03/12 05:43:43;;;;;;;9.30;4.38;;;;;;;0.60;91.91;99859.81;5112042;28;20423;-59
2022/03/12 05:46:11;;;;;;;9.25;4.30;;;;;;;0.40;90.11;99856.22;5118754;28;20051;-59
2022/03/12 05:48:38;;;;;;;9.10;3.78;;;;;;;0.47;93.51;99839.69;5129431;27;20078;-59
2022/03/12 05:51:09;;;;;;;11.52;4.20;;;;;;;0.35;91.95;99848.13;5132111;27;20421;-59
2022/03/12 05:53:36;;;;;;;13.07;4.45;;;;;;;0.55;94.09;99838.28;5124537;28;20132;-59
2022/03/12 05:56:04;;;;;;;9.98;4.47;;;;;;;0.55;92.48;99832.88;5111385;28;20047;-59
2022/03/12 05:58:38;;;;;;;9.95;4.15;;;;;;;0.48;92.41;99830.50;5130893;28;20103;-59
2022/03/12 06:01:05;;;;;;;8.60;4.07;;;;;;;0.35;91.57;99826.56;5124950;27;20054;-59
2022/03/12 06:03:31;;;;;;;7.53;4.07;;;;;;;0.16;94.47;99825.59;5125303;28;20613;-59
2022/03/12 06:05:59;;;;;;;7.78;3.60;;;;;;;0.30;95.25;99823.91;5121028;28;20562;-59
2022/03/12 06:08:28;;;;;;;8.30;4.25;;;;;;;0.36;95.98;99822.75;5116749;27;20445;-59
2022/03/12 06:10:56;;;;;;;8.13;4.30;;;;;;;0.51;94.44;99812.97;5123286;28;20054;-59
2022/03/12 06:13:23;;;;;;;7.65;3.80;;;;;;;0.56;95.31;99815.59;5117965;28;20070;-59
2022/03/12 06:15:55;;;;;;;15.23;4.35;;;;;;;0.64;94.72;99823.09;5122247;28;20086;-59
2022/03/12 06:18:23;;;;;;;15.43;4.47;;;;;;;0.59;93.85;99831.22;5129058;27;20055;-59
2022/03/12 06:20:50;;;;;;;8.30;3.95;;;;;;;0.56;95.95;99821.00;5131418;28;20051;-60
2022/03/12 06:23:16;;;;;;;11.27;3.88;;;;;;;0.51;95.17;99811.06;5131566;27;20050;-61
2022/03/12 06:25:43;;;;;;;8.60;3.90;;;;;;;0.58;97.56;99813.44;5131293;28;20054;-59
2022/03/12 06:28:09;;;;;;;7.20;3.83;;;;;;;0.71;96.43;99812.78;5118686;27;20047;-57
2022/03/12 06:30:36;;;;;;;6.90;3.75;;;;;;;0.83;96.82;99815.09;5131419;27;20429;-58
2022/03/12 06:33:04;;;;;;;11.23;4.47;;;;;;;1.06;96.41;99818.94;5131410;27;20080;-58
2022/03/12 06:35:30;;;;;;;9.15;4.28;;;;;;;1.20;94.14;99830.69;5131179;27;20043;-59
2022/03/12 06:37:56;;;;;;;13.05;4.38;;;;;;;1.30;94.16;99838.69;5144783;27;20054;-58
2022/03/12 06:40:28;;;;;;;10.13;3.53;;;;;;;1.47;92.59;99837.41;5149988;27;20043;-57
2022/03/12 06:42:56;;;;;;;16.75;4.68;;;;;;;1.61;92.54;99841.03;5126350;27;20462;-57
2022/03/12 06:45:23;;;;;;;18.85;4.82;;;;;;;1.76;92.64;99848.13;5113418;27;20048;-59
2022/03/12 06:47:49;;;;;;;10.15;3.67;;;;;;;1.66;92.12;99843.66;5110550;28;20196;-59
2022/03/12 06:50:19;;;;;;;9.77;4.43;;;;;;;1.61;91.91;99852.63;5110398;28;20538;-58
2022/03/12 06:52:48;;;;;;;8.80;4.55;;;;;;;1.52;92.52;99848.94;5109897;28;20047;-60
2022/03/12 06:55:14;;;;;;;10.52;4.57;;;;;;;1.52;94.32;99832.75;5125728;27;20075;-58
2022/03/12 06:57:41;;;;;;;7.78;4.30;;;;;;;1.57;94.48;99835.41;5114336;27;20078;-62
2022/03/12 07:00:15;;;;;;;13.77;4.25;;;;;;;1.88;94.56;99822.28;5110547;28;20043;-63
2022/03/12 07:02:41;;;;;;;10.55;4.75;;;;;;;1.99;94.85;99827.56;5110853;28;20478;-60
2022/03/12 07:05:08;;;;;;;10.95;4.05;;;;;;;2.00;90.73;99838.09;5112708;28;20050;-59
2022/03/12 07:07:34;;;;;;;8.20;4.20;;;;;;;2.17;91.04;99834.09;5121663;28;20498;-60
2022/03/12 07:10:01;;;;;;;8.80;4.30;;;;;;;2.18;91.25;99844.59;5110713;28;20066;-61
2022/03/12 07:12:27;;;;;;;7.43;3.75;;;;;;;2.24;89.76;99838.03;5110242;28;20091;-60
2022/03/12 07:14:53;;;;;;;6.88;4.05;;;;;;;2.24;88.48;99834.53;5110489;28;20047;-60
2022/03/12 07:17:20;;;;;;;8.05;4.28;;;;;;;2.31;89.24;99835.75;5112249;28;20404;-63
2022/03/12 07:19:46;;;;;;;12.07;4.40;;;;;;;2.38;90.83;99826.47;5109990;28;20044;-60
2022/03/12 07:22:13;;;;;;;10.68;4.22;;;;;;;2.37;91.36;99825.66;5110263;28;20400;-63
2022/03/12 07:24:39;;;;;;;6.88;3.90;;;;;;;2.49;91.37;99817.06;5110043;27;20052;-64
2022/03/12 07:27:05;;;;;;;8.43;3.85;;;;;;;2.66;89.99;99813.81;5118931;27;20043;-64
2022/03/12 07:29:32;;;;;;;6.28;3.78;;;;;;;2.68;87.58;99828.69;5130116;27;20078;-63
2022/03/12 07:31:58;;;;;;;6.60;3.65;;;;;;;2.73;88.05;99836.72;5130469;27;20055;-61
2022/03/12 07:34:25;;;;;;;7.80;3.47;;;;;;;2.75;87.95;99828.28;5130293;28;20446;-66
2022/03/12 07:36:51;;;;;;;9.75;3.83;;;;;;;2.78;91.19;99814.97;5123389;28;20051;-60
2022/03/12 07:39:17;;;;;;;7.60;3.63;;;;;;;2.89;92.58;99807.47;5109762;28;20059;-65
2022/03/12 07:41:44;;;;;;;6.57;4.00;;;;;;;2.83;89.00;99809.47;5110058;28;20050;-62
2022/03/12 07:44:11;;;;;;;5.65;3.35;;;;;;;2.87;88.30;99811.59;5123152;28;20441;-63
2022/03/12 07:46:37;;;;;;;9.68;3.33;;;;;;;2.91;89.73;99818.00;5123145;28;20083;-60
2022/03/12 07:49:04;;;;;;;8.68;3.50;;;;;;;2.90;91.03;99813.69;5112279;28;20058;-58
2022/03/12 07:51:31;;;;;;;8.65;3.72;;;;;;;2.94;92.35;99807.38;5118581;28;20143;-59
2022/03/12 07:53:59;;;;;;;11.90;3.92;;;;;;;2.83;90.39;99811.34;5115075;27;20054;-59
2022/03/12 07:56:25;;;;;;;10.63;3.50;;;;;;;2.82;90.49;99815.97;5126870;27;20073;-59
2022/03/12 07:58:51;;;;;;;7.53;3.67;;;;;;;2.78;92.78;99797.91;5133903;27;20150;-62
2022/03/12 08:01:18;;;;;;;7.75;3.10;;;;;;;2.75;91.25;99804.72;5133965;27;20130;-60
2022/03/12 08:03:44;;;;;;;9.73;3.47;;;;;;;2.85;92.21;99800.25;5133931;27;20054;-59
2022/03/12 08:06:12;;;;;;;11.43;3.85;;;;;;;2.77;93.88;99783.59;5131186;27;20473;-62
2022/03/12 08:08:39;;;;;;;10.80;4.00;;;;;;;2.96;94.32;99788.13;5113327;28;20162;-61
2022/03/12 08:13:57;;;;;;;11.40;3.75;;;;;;;2.94;95.97;99771.38;5102061;28;20495;-61
2022/03/12 08:16:24;;;;;;;6.70;3.35;;;;;;;3.04;92.39;99793.66;5117326;27;20192;-60
2022/03/12 08:18:50;;;;;;;6.40;3.78;;;;;;;3.23;95.32;99771.91;5133858;27;20055;-59
2022/03/12 08:21:16;;;;;;;8.57;3.50;;;;;;;3.36;92.59;99761.34;5133644;27;20047;-60
2022/03/12 08:23:45;;;;;;;6.78;3.70;;;;;;;3.22;92.84;99764.84;5133505;28;20043;-60
2022/03/12 08:26:11;;;;;;;8.35;3.85;;;;;;;3.16;92.72;99774.19;5130622;27;20059;-60
2022/03/12 08:28:37;;;;;;;8.88;4.10;;;;;;;3.28;94.46;99768.28;5111835;28;20112;-60
2022/03/12 08:31:04;;;;;;;8.38;3.85;;;;;;;3.29;93.09;99775.28;5112674;28;20048;-60
2022/03/12 08:33:32;;;;;;;6.45;4.10;;;;;;;3.32;96.20;99777.41;5112711;28;20085;-60
2022/03/12 08:36:00;;;;;;;9.43;3.83;;;;;;;3.26;94.65;99781.31;5112768;28;20415;-60
2022/03/12 08:38:26;;;;;;;9.68;4.45;;;;;;;3.48;99.24;99761.63;5132984;27;20407;-60
2022/03/12 08:40:54;;;;;;;8.32;3.70;;;;;;;3.60;95.27;99772.78;5132770;27;20077;-61
2022/03/12 08:43:21;;;;;;;6.80;3.80;;;;;;;3.69;93.69;99787.22;5132654;28;20047;-59
2022/03/12 08:45:48;;;;;;;8.77;3.80;;;;;;;3.70;91.38;99796.97;5120223;28;20461;-58
2022/03/12 08:48:15;;;;;;;7.57;3.97;;;;;;;3.82;92.76;99785.59;5112149;28;20051;-58
2022/03/12 08:50:41;;;;;;;11.95;4.10;;;;;;;3.82;89.98;99788.28;5112791;28;20465;-63
2022/03/12 08:53:08;;;;;;;5.43;3.65;;;;;;;3.93;91.41;99794.28;5112122;28;20109;-61
2022/03/12 08:55:34;;;;;;;8.38;3.97;;;;;;;3.90;91.64;99798.44;5112614;28;20050;-61
2022/03/12 08:58:01;;;;;;;6.57;3.63;;;;;;;3.69;91.95;99786.41;5113223;28;20078;-62
2022/03/12 09:00:27;;;;;;;9.63;3.92;;;;;;;3.53;92.09;99783.22;5132519;27;20417;-60
2022/03/12 09:02:53;;;;;;;12.63;4.03;;;;;;;3.41;94.31;99780.22;5119692;27;20051;-61
2022/03/12 09:05:20;;;;;;;9.55;3.58;;;;;;;3.37;93.16;99785.44;5124743;27;20051;-61
2022/03/12 09:07:48;;;;;;;6.00;3.47;;;;;;;3.38;95.10;99784.34;5123274;27;20499;-61
2022/03/12 09:10:16;;;;;;;5.65;3.47;;;;;;;3.28;97.76;99776.41;5121700;27;20544;-61
2022/03/12 09:12:43;;;;;;;8.15;3.85;;;;;;;3.26;97.42;99770.47;5121031;28;20053;-60
2022/03/12 09:15:11;;;;;;;8.48;4.07;;;;;;;3.18;99.02;99768.47;5126857;28;20051;-60
2022/03/12 09:17:38;;;;;;;9.88;4.38;;;;;;;3.04;100.00;99754.94;5123740;28;20569;-61
2022/03/12 09:20:06;;;;;;;9.77;3.47;;;;;;;3.17;100.00;99753.34;5121386;27;20418;-62
2022/03/12 09:22:32;;;;;;;12.07;4.10;;;;;;;3.30;100.00;99744.41;5121182;27;20486;-61
2022/03/12 09:24:59;;;;;;;7.15;3.75;;;;;;;3.36;100.00;99737.75;5118949;28;20051;-61
2022/03/12 09:27:25;;;;;;;7.30;3.83;;;;;;;3.47;100.00;99739.16;5112286;28;20065;-61
2022/03/12 09:29:51;;;;;;;11.10;4.15;;;;;;;3.57;100.00;99743.56;5119672;28;20048;-61
2022/03/12 09:32:18;;;;;;;5.60;3.00;;;;;;;3.55;99.84;99740.34;5129992;27;20134;-61
2022/03/12 09:34:44;;;;;;;8.60;4.40;;;;;;;3.47;100.00;99739.16;5132405;27;20082;-61
2022/03/12 09:37:11;;;;;;;5.35;3.65;;;;;;;3.37;100.00;99744.00;5132087;27;20099;-61
2022/03/12 09:39:37;;;;;;;6.15;3.53;;;;;;;3.36;100.00;99729.63;5132149;27;20138;-62
2022/03/12 09:42:04;;;;;;;9.15;4.20;;;;;;;3.40;100.00;99733.34;5132161;27;20087;-61
2022/03/12 09:44:31;;;;;;;6.97;4.20;;;;;;;3.33;100.00;99722.09;5131883;27;20139;-61
2022/03/12 09:46:57;;;;;;;7.28;3.25;;;;;;;3.46;100.00;99715.84;5132124;27;20043;-61
2022/03/12 09:49:24;;;;;;;8.68;4.32;;;;;;;3.51;100.00;99718.47;5132051;27;20047;-61
2022/03/12 09:51:50;;;;;;;6.72;3.85;;;;;;;3.46;100.00;99715.84;5131632;27;20138;-61
2022/03/12 09:54:18;;;;;;;10.73;4.25;;;;;;;3.61;100.00;99708.50;5131777;28;20063;-61
2022/03/12 09:56:44;;;;;;;10.80;3.95;;;;;;;3.75;100.00;99709.25;5131786;27;20082;-61
2022/03/12 09:59:11;;;;;;;7.35;3.63;;;;;;;3.99;100.00;99719.81;5131986;28;20063;-61
2022/03/12 10:01:37;;;;;;;9.52;4.05;;;;;;;4.03;100.00;99707.25;5120231;28;20047;-61
2022/03/12 10:04:04;;;;;;;9.23;4.10;;;;;;;4.15;100.00;99721.06;5111494;28;20561;-61
2022/03/12 10:06:31;;;;;;;7.47;4.03;;;;;;;4.17;100.00;99720.78;5115643;27;20906;-62
2022/03/12 10:08:57;;;;;;;10.00;4.00;;;;;;;4.00;100.00;99719.53;5111366;28;20453;-61
2022/03/12 10:11:25;;;;;;;11.57;4.22;;;;;;;3.99;100.00;99719.81;5131927;27;20154;-61
2022/03/12 10:13:51;;;;;;;9.30;3.55;;;;;;;4.09;100.00;99722.28;5121511;28;20082;-61
2022/03/12 10:16:18;;;;;;;7.60;4.22;;;;;;;4.33;100.00;99715.75;5111965;28;20043;-61
2022/03/12 10:18:45;;;;;;;12.77;4.55;;;;;;;4.42;100.00;99725.56;5109970;28;20058;-61
2022/03/12 10:21:11;;;;;;;11.30;5.05;;;;;;;4.32;100.00;99722.31;5110728;28;20563;-61
2022/03/12 10:23:38;;;;;;;6.82;4.00;;;;;;;4.42;100.00;99716.63;5125782;28;20109;-61
2022/03/12 10:26:05;;;;;;;8.32;4.47;;;;;;;4.53;100.00;99723.38;5131584;27;20470;-61
2022/03/12 10:28:36;;;;;;;7.80;3.78;;;;;;;4.52;100.00;99719.06;5130553;28;20092;-61
2022/03/12 10:31:05;;;;;;;7.97;3.83;;;;;;;4.66;100.00;99702.69;5130988;27;20047;-62
2022/03/12 10:33:32;;;;;;;8.68;3.90;;;;;;;4.68;100.00;99698.56;5121141;28;20058;-61
2022/03/12 10:36:08;;;;;;;9.30;4.47;;;;;;;4.75;100.00;99706.25;5128189;28;20051;-61
2022/03/12 10:38:42;;;;;;;11.25;3.70;;;;;;;4.75;100.00;99700.03;5131262;28;20476;-62
2022/03/12 10:41:15;;;;;;;7.88;3.78;;;;;;;4.81;100.00;99691.44;5210784;27;20581;-60
2022/03/12 10:43:48;;;;;;;16.45;4.47;;;;;;;4.79;100.00;99692.84;5189675;27;20496;-60
2022/03/12 10:46:22;;;;;;;9.13;4.25;;;;;;;4.70;100.00;99681.97;5179501;27;20089;-60
2022/03/12 10:48:53;;;;;;;12.63;4.38;;;;;;;4.82;100.00;99689.50;5174179;27;20050;-60
2022/03/12 10:51:21;;;;;;;8.05;4.07;;;;;;;4.74;100.00;99687.56;5189561;27;20046;-60
2022/03/12 10:53:49;;;;;;;7.13;3.55;;;;;;;4.89;100.00;99671.63;5189404;27;20402;-61
2022/03/12 10:56:16;;;;;;;6.55;3.88;;;;;;;4.83;100.00;99672.91;5189282;27;20133;-61
2022/03/12 10:58:42;;;;;;;9.05;4.45;;;;;;;4.88;100.00;99680.09;5183439;27;20046;-62
2022/03/12 11:01:09;;;;;;;11.23;3.70;;;;;;;4.93;100.00;99661.75;5180737;27;20541;-62
2022/03/12 11:03:37;;;;;;;11.10;3.88;;;;;;;4.94;100.00;99665.25;5178740;27;20085;-63
2022/03/12 11:06:05;;;;;;;15.68;4.07;;;;;;;5.03;100.00;99657.13;5177170;27;20069;-61
2022/03/12 11:08:32;;;;;;;7.45;3.88;;;;;;;5.04;100.00;99648.66;5178683;27;20394;-60
2022/03/12 11:11:00;;;;;;;8.93;4.30;;;;;;;5.10;100.00;99650.13;5167957;27;20129;-62
2022/03/12 11:13:40;;;;;;;12.10;4.47;;;;;;;5.15;100.00;99641.81;5168471;27;20437;-61
2022/03/12 11:16:19;;;;;;;8.02;3.95;;;;;;;5.43;100.00;99644.25;5173210;27;20057;-61
2022/03/12 11:19:07;;;;;;;6.45;4.10;;;;;;;5.56;100.00;99650.66;5173071;27;20079;-62
2022/03/12 11:21:37;;;;;;;15.80;4.70;;;;;;;5.34;100.00;99646.16;5168312;27;20137;-61
2022/03/12 11:24:05;;;;;;;26.85;5.25;;;;;;;5.08;100.00;99644.19;5170315;27;20524;-61
2022/03/12 11:26:32;;;;;;;16.20;4.25;;;;;;;4.96;100.00;99627.69;5175348;27;20046;-61
2022/03/12 11:28:59;;;;;;;16.90;5.07;;;;;;;4.91;100.00;99620.50;5166959;27;20043;-61
2022/03/12 11:31:42;;;;;;;9.10;4.13;;;;;;;4.67;100.00;99614.69;5167890;27;20054;-61
2022/03/12 11:34:32;;;;;;;13.15;4.40;;;;;;;4.83;100.00;99609.59;5167670;27;20042;-62